sensor_id;sensor_type;location;lat;lon;timestamp;temperature;humidity
17284;DHT22;8760;52.248;20.952;2022-10-31T00:00:10;9.10;99.90
17284;DHT22;8760;52.248;20.952;2022-10-31T00:02:37;9.10;99.90
17284;DHT22;8760;52.248;20.952;2022-10-31T00:05:04;9.10;99.90
17284;DHT22;8760;52.248;20.952;2022-10-31T00:07:31;9.10;99.90
17284;DHT22;8760;52.248;20.952;2022-10-31T00:09:58;9.10;99.90
17284;DHT22;8760;52.248;20.952;2022-10-31T00:12:26;9.10;99.90
17284;DHT22;8760;52.248;20.952;2022-10-31T00:14:54;9.00;99.90
17284;DHT22;8760;52.248;20.952;2022-10-31T00:17:21;9.00;99.90
17284;DHT22;8760;52.248;20.952;2022-10-31T00:19:48;9.00;99.90
17284;DHT22;8760;52.248;20.952;2022-10-31T00:22:15;9.00;99.90
17284;DHT22;8760;52.248;20.952;2022-10-31T00:24:42;8.90;99.90
17284;DHT22;8760;52.248;20.952;2022-10-31T00:27:09;9.00;99.90
17284;DHT22;8760;52.248;20.952;2022-10-31T00:29:36;9.00;99.90
17284;DHT22;8760;52.248;20.952;2022-10-31T00:32:04;8.90;99.90
17284;DHT22;8760;52.248;20.952;2022-10-31T00:34:32;8.90;99.90
17284;DHT22;8760;52.248;20.952;2022-10-31T00:36:59;8.90;99.90
17284;DHT22;8760;52.248;20.952;2022-10-31T00:39:25;8.90;99.90
17284;DHT22;8760;52.248;20.952;2022-10-31T00:41:52;8.90;99.90
17284;DHT22;8760;52.248;20.952;2022-10-31T00:44:19;8.90;99.90
17284;DHT22;8760;52.248;20.952;2022-10-31T00:46:46;8.90;99.90
17284;DHT22;8760;52.248;20.952;2022-10-31T00:49:15;8.90;99.90
17284;DHT22;8760;52.248;20.952;2022-10-31T00:51:43;8.80;99.90
17284;DHT22;8760;52.248;20.952;2022-10-31T00:54:10;8.80;99.90
17284;DHT22;8760;52.248;20.952;2022-10-31T00:56:37;8.80;99.90
17284;DHT22;8760;52.248;20.952;2022-10-31T00:59:03;8.80;99.90
17284;DHT22;8760;52.248;20.952;2022-10-31T01:01:30;8.80;99.90
17284;DHT22;8760;52.248;20.952;2022-10-31T01:03:57;8.80;99.90
17284;DHT22;8760;52.248;20.952;2022-10-31T01:06:25;8.70;99.90
17284;DHT22;8760;52.248;20.952;2022-10-31T01:08:52;8.70;99.90
17284;DHT22;8760;52.248;20.952;2022-10-31T01:11:22;8.70;99.90
17284;DHT22;8760;52.248;20.952;2022-10-31T01:13:51;8.70;99.90
17284;DHT22;8760;52.248;20.952;2022-10-31T01:16:20;8.60;99.90
17284;DHT22;8760;52.248;20.952;2022-10-31T01:18:47;8.60;99.90
17284;DHT22;8760;52.248;20.952;2022-10-31T01:21:16;8.60;99.90
17284;DHT22;8760;52.248;20.952;2022-10-31T01:23:44;8.60;99.90
17284;DHT22;8760;52.248;20.952;2022-10-31T01:26:13;8.60;99.90
17284;DHT22;8760;52.248;20.952;2022-10-31T01:28:45;8.50;99.90
17284;DHT22;8760;52.248;20.952;2022-10-31T01:31:12;8.50;99.90
17284;DHT22;8760;52.248;20.952;2022-10-31T01:33:39;8.50;99.90
17284;DHT22;8760;52.248;20.952;2022-10-31T01:36:15;8.50;99.90
17284;DHT22;8760;52.248;20.952;2022-10-31T01:38:44;8.50;99.90
17284;DHT22;8760;52.248;20.952;2022-10-31T01:41:13;8.50;99.90
17284;DHT22;8760;52.248;20.952;2022-10-31T01:43:52;8.50;99.90
17284;DHT22;8760;52.248;20.952;2022-10-31T01:46:22;8.50;99.90
17284;DHT22;8760;52.248;20.952;2022-10-31T01:48:51;8.50;99.90
17284;DHT22;8760;52.248;20.952;2022-10-31T01:51:20;8.40;99.90
17284;DHT22;8760;52.248;20.952;2022-10-31T01:53:52;8.40;99.90
17284;DHT22;8760;52.248;20.952;2022-10-31T01:56:20;8.40;99.90
17284;DHT22;8760;52.248;20.952;2022-10-31T01:58:48;8.40;99.90
17284;DHT22;8760;52.248;20.952;2022-10-31T02:01:16;8.40;99.90
17284;DHT22;8760;52.248;20.952;2022-10-31T02:03:44;8.40;99.90
17284;DHT22;8760;52.248;20.952;2022-10-31T02:06:20;8.30;99.90
17284;DHT22;8760;52.248;20.952;2022-10-31T02:08:48;8.30;99.90
17284;DHT22;8760;52.248;20.952;2022-10-31T02:11:17;8.30;99.90
17284;DHT22;8760;52.248;20.952;2022-10-31T02:13:43;8.30;99.90
17284;DHT22;8760;52.248;20.952;2022-10-31T02:16:11;8.30;99.90
17284;DHT22;8760;52.248;20.952;2022-10-31T02:18:37;8.30;99.90
17284;DHT22;8760;52.248;20.952;2022-10-31T02:21:11;8.30;99.90
17284;DHT22;8760;52.248;20.952;2022-10-31T02:24:00;8.30;99.90
17284;DHT22;8760;52.248;20.952;2022-10-31T02:27:04;8.30;99.90
17284;DHT22;8760;52.248;20.952;2022-10-31T02:30:00;8.30;99.90
17284;DHT22;8760;52.248;20.952;2022-10-31T02:32:43;8.20;99.90
17284;DHT22;8760;52.248;20.952;2022-10-31T02:35:21;8.20;99.90
17284;DHT22;8760;52.248;20.952;2022-10-31T02:37:56;8.20;99.90
17284;DHT22;8760;52.248;20.952;2022-10-31T02:40:27;8.20;99.90
17284;DHT22;8760;52.248;20.952;2022-10-31T02:43:02;8.20;99.90
17284;DHT22;8760;52.248;20.952;2022-10-31T02:45:37;8.20;99.90
17284;DHT22;8760;52.248;20.952;2022-10-31T02:48:10;8.20;99.90
17284;DHT22;8760;52.248;20.952;2022-10-31T02:50:41;8.20;99.90
17284;DHT22;8760;52.248;20.952;2022-10-31T02:53:08;8.20;99.90
17284;DHT22;8760;52.248;20.952;2022-10-31T02:55:50;8.10;99.90
17284;DHT22;8760;52.248;20.952;2022-10-31T02:58:22;8.20;99.90
17284;DHT22;8760;52.248;20.952;2022-10-31T03:06:44;8.10;99.90
17284;DHT22;8760;52.248;20.952;2022-10-31T03:09:17;8.20;99.90
17284;DHT22;8760;52.248;20.952;2022-10-31T03:11:56;8.20;99.90
17284;DHT22;8760;52.248;20.952;2022-10-31T03:14:27;8.20;99.90
17284;DHT22;8760;52.248;20.952;2022-10-31T03:17:00;8.20;99.90
17284;DHT22;8760;52.248;20.952;2022-10-31T03:19:34;8.10;99.90
17284;DHT22;8760;52.248;20.952;2022-10-31T03:22:05;8.10;99.90
17284;DHT22;8760;52.248;20.952;2022-10-31T03:24:37;8.10;99.90
17284;DHT22;8760;52.248;20.952;2022-10-31T03:27:08;8.10;99.90
17284;DHT22;8760;52.248;20.952;2022-10-31T03:29:38;8.10;99.90
17284;DHT22;8760;52.248;20.952;2022-10-31T03:32:08;8.10;99.90
17284;DHT22;8760;52.248;20.952;2022-10-31T03:34:39;8.10;99.90
17284;DHT22;8760;52.248;20.952;2022-10-31T03:37:09;8.10;99.90
17284;DHT22;8760;52.248;20.952;2022-10-31T03:39:39;8.10;99.90
17284;DHT22;8760;52.248;20.952;2022-10-31T03:42:10;8.00;99.90
17284;DHT22;8760;52.248;20.952;2022-10-31T03:44:39;8.00;99.90
17284;DHT22;8760;52.248;20.952;2022-10-31T03:47:09;8.00;99.90
17284;DHT22;8760;52.248;20.952;2022-10-31T03:49:37;8.10;99.90
17284;DHT22;8760;52.248;20.952;2022-10-31T03:52:12;8.00;99.90
17284;DHT22;8760;52.248;20.952;2022-10-31T03:54:42;8.00;99.90
17284;DHT22;8760;52.248;20.952;2022-10-31T03:57:15;8.00;99.90
17284;DHT22;8760;52.248;20.952;2022-10-31T03:59:46;8.00;99.90
17284;DHT22;8760;52.248;20.952;2022-10-31T04:02:16;8.00;99.90
17284;DHT22;8760;52.248;20.952;2022-10-31T04:04:46;8.00;99.90
17284;DHT22;8760;52.248;20.952;2022-10-31T04:07:15;8.00;99.90
17284;DHT22;8760;52.248;20.952;2022-10-31T04:09:45;8.00;99.90
17284;DHT22;8760;52.248;20.952;2022-10-31T04:12:14;8.10;99.90
17284;DHT22;8760;52.248;20.952;2022-10-31T04:14:44;8.00;99.90
17284;DHT22;8760;52.248;20.952;2022-10-31T04:17:14;8.00;99.90
17284;DHT22;8760;52.248;20.952;2022-10-31T04:19:42;8.00;99.90
17284;DHT22;8760;52.248;20.952;2022-10-31T04:22:10;8.00;99.90
17284;DHT22;8760;52.248;20.952;2022-10-31T04:24:39;8.00;99.90
17284;DHT22;8760;52.248;20.952;2022-10-31T04:27:06;8.00;99.90
17284;DHT22;8760;52.248;20.952;2022-10-31T04:29:33;8.00;99.90
17284;DHT22;8760;52.248;20.952;2022-10-31T04:32:00;8.00;99.90
17284;DHT22;8760;52.248;20.952;2022-10-31T04:34:27;8.00;99.90
17284;DHT22;8760;52.248;20.952;2022-10-31T04:36:54;8.00;99.90
17284;DHT22;8760;52.248;20.952;2022-10-31T04:39:22;8.00;99.90
17284;DHT22;8760;52.248;20.952;2022-10-31T04:41:49;8.00;99.90
17284;DHT22;8760;52.248;20.952;2022-10-31T04:44:16;8.00;99.90
17284;DHT22;8760;52.248;20.952;2022-10-31T04:46:43;8.00;99.90
17284;DHT22;8760;52.248;20.952;2022-10-31T04:49:10;8.00;99.90
17284;DHT22;8760;52.248;20.952;2022-10-31T04:51:36;8.00;99.90
17284;DHT22;8760;52.248;20.952;2022-10-31T04:54:04;8.00;99.90
17284;DHT22;8760;52.248;20.952;2022-10-31T04:56:32;8.00;99.90
17284;DHT22;8760;52.248;20.952;2022-10-31T04:58:59;8.00;99.90
17284;DHT22;8760;52.248;20.952;2022-10-31T05:01:26;8.00;99.90
17284;DHT22;8760;52.248;20.952;2022-10-31T05:03:53;8.00;99.90
17284;DHT22;8760;52.248;20.952;2022-10-31T05:06:20;8.00;99.90
17284;DHT22;8760;52.248;20.952;2022-10-31T05:08:47;8.00;99.90
17284;DHT22;8760;52.248;20.952;2022-10-31T05:11:14;8.00;99.90
17284;DHT22;8760;52.248;20.952;2022-10-31T05:13:42;8.00;99.90
17284;DHT22;8760;52.248;20.952;2022-10-31T05:16:09;8.00;99.90
17284;DHT22;8760;52.248;20.952;2022-10-31T05:18:36;8.00;99.90
17284;DHT22;8760;52.248;20.952;2022-10-31T05:21:04;8.00;99.90
17284;DHT22;8760;52.248;20.952;2022-10-31T05:23:31;8.00;99.90
17284;DHT22;8760;52.248;20.952;2022-10-31T05:25:58;8.00;99.90
17284;DHT22;8760;52.248;20.952;2022-10-31T05:28:25;8.00;99.90
17284;DHT22;8760;52.248;20.952;2022-10-31T05:30:53;8.00;99.90
17284;DHT22;8760;52.248;20.952;2022-10-31T05:33:20;8.00;99.90
17284;DHT22;8760;52.248;20.952;2022-10-31T05:35:48;8.00;99.90
17284;DHT22;8760;52.248;20.952;2022-10-31T05:38:15;8.00;99.90
17284;DHT22;8760;52.248;20.952;2022-10-31T05:40:41;8.00;99.90
17284;DHT22;8760;52.248;20.952;2022-10-31T05:43:08;8.00;99.90
17284;DHT22;8760;52.248;20.952;2022-10-31T05:45:35;8.00;99.90
17284;DHT22;8760;52.248;20.952;2022-10-31T05:48:04;8.00;99.90
17284;DHT22;8760;52.248;20.952;2022-10-31T05:50:31;8.10;99.90
17284;DHT22;8760;52.248;20.952;2022-10-31T05:53:00;8.10;99.90
17284;DHT22;8760;52.248;20.952;2022-10-31T05:55:28;8.10;99.90
17284;DHT22;8760;52.248;20.952;2022-10-31T05:57:55;8.10;99.90
17284;DHT22;8760;52.248;20.952;2022-10-31T06:00:24;8.10;99.90
17284;DHT22;8760;52.248;20.952;2022-10-31T06:02:58;8.10;99.90
17284;DHT22;8760;52.248;20.952;2022-10-31T06:05:26;8.20;99.90
17284;DHT22;8760;52.248;20.952;2022-10-31T06:07:53;8.20;99.90
17284;DHT22;8760;52.248;20.952;2022-10-31T06:10:20;8.30;99.90
17284;DHT22;8760;52.248;20.952;2022-10-31T06:12:47;8.30;99.90
17284;DHT22;8760;52.248;20.952;2022-10-31T06:15:14;8.40;99.90
17284;DHT22;8760;52.248;20.952;2022-10-31T06:17:41;8.50;99.90
17284;DHT22;8760;52.248;20.952;2022-10-31T06:20:09;8.60;99.90
17284;DHT22;8760;52.248;20.952;2022-10-31T06:22:38;8.70;99.90
17284;DHT22;8760;52.248;20.952;2022-10-31T06:25:05;8.80;99.90
17284;DHT22;8760;52.248;20.952;2022-10-31T06:27:32;8.90;99.90
17284;DHT22;8760;52.248;20.952;2022-10-31T06:29:59;8.90;99.90
17284;DHT22;8760;52.248;20.952;2022-10-31T06:32:26;9.10;99.90
17284;DHT22;8760;52.248;20.952;2022-10-31T06:34:52;9.20;99.90
17284;DHT22;8760;52.248;20.952;2022-10-31T06:37:19;9.40;99.90
17284;DHT22;8760;52.248;20.952;2022-10-31T06:39:48;9.40;99.90
17284;DHT22;8760;52.248;20.952;2022-10-31T06:42:15;9.50;99.90
17284;DHT22;8760;52.248;20.952;2022-10-31T06:44:42;9.70;99.90
17284;DHT22;8760;52.248;20.952;2022-10-31T06:47:09;9.90;99.90
17284;DHT22;8760;52.248;20.952;2022-10-31T06:49:36;10.00;99.90
17284;DHT22;8760;52.248;20.952;2022-10-31T06:52:03;10.10;99.90
17284;DHT22;8760;52.248;20.952;2022-10-31T06:54:32;10.10;99.90
17284;DHT22;8760;52.248;20.952;2022-10-31T06:57:00;10.20;99.90
17284;DHT22;8760;52.248;20.952;2022-10-31T06:59:27;10.20;99.90
17284;DHT22;8760;52.248;20.952;2022-10-31T07:01:54;10.40;99.90
17284;DHT22;8760;52.248;20.952;2022-10-31T07:04:21;10.40;99.90
17284;DHT22;8760;52.248;20.952;2022-10-31T07:06:50;10.50;99.90
17284;DHT22;8760;52.248;20.952;2022-10-31T07:09:17;10.60;99.90
17284;DHT22;8760;52.248;20.952;2022-10-31T07:11:44;10.60;99.90
17284;DHT22;8760;52.248;20.952;2022-10-31T07:14:12;10.60;99.90
17284;DHT22;8760;52.248;20.952;2022-10-31T07:16:39;10.60;99.90
17284;DHT22;8760;52.248;20.952;2022-10-31T07:19:06;10.70;99.90
17284;DHT22;8760;52.248;20.952;2022-10-31T07:21:33;10.70;99.90
17284;DHT22;8760;52.248;20.952;2022-10-31T07:24:00;10.80;99.90
17284;DHT22;8760;52.248;20.952;2022-10-31T07:26:27;10.90;99.90
17284;DHT22;8760;52.248;20.952;2022-10-31T07:28:54;11.00;99.90
17284;DHT22;8760;52.248;20.952;2022-10-31T07:31:22;11.10;99.90
17284;DHT22;8760;52.248;20.952;2022-10-31T07:33:50;11.10;99.90
17284;DHT22;8760;52.248;20.952;2022-10-31T07:36:19;11.20;99.90
17284;DHT22;8760;52.248;20.952;2022-10-31T07:38:46;11.30;99.90
17284;DHT22;8760;52.248;20.952;2022-10-31T07:41:13;11.40;99.90
17284;DHT22;8760;52.248;20.952;2022-10-31T07:43:40;11.50;99.90
17284;DHT22;8760;52.248;20.952;2022-10-31T07:46:07;11.60;99.90
17284;DHT22;8760;52.248;20.952;2022-10-31T07:48:35;11.70;99.90
17284;DHT22;8760;52.248;20.952;2022-10-31T07:51:04;11.80;99.90
17284;DHT22;8760;52.248;20.952;2022-10-31T07:53:32;11.90;99.90
17284;DHT22;8760;52.248;20.952;2022-10-31T07:55:59;12.10;99.90
17284;DHT22;8760;52.248;20.952;2022-10-31T07:58:26;12.10;99.90
17284;DHT22;8760;52.248;20.952;2022-10-31T08:00:53;12.40;99.90
17284;DHT22;8760;52.248;20.952;2022-10-31T08:03:20;12.50;99.90
17284;DHT22;8760;52.248;20.952;2022-10-31T08:05:48;12.50;99.90
17284;DHT22;8760;52.248;20.952;2022-10-31T08:08:15;12.70;99.90
17284;DHT22;8760;52.248;20.952;2022-10-31T08:10:42;13.40;99.90
17284;DHT22;8760;52.248;20.952;2022-10-31T08:13:11;14.30;99.90
17284;DHT22;8760;52.248;20.952;2022-10-31T08:15:38;15.30;99.90
17284;DHT22;8760;52.248;20.952;2022-10-31T08:18:11;16.20;46.80
17284;DHT22;8760;52.248;20.952;2022-10-31T08:20:38;16.90;99.90
17284;DHT22;8760;52.248;20.952;2022-10-31T08:23:06;17.40;1.00
17284;DHT22;8760;52.248;20.952;2022-10-31T08:25:34;17.80;1.00
17284;DHT22;8760;52.248;20.952;2022-10-31T08:28:01;18.20;99.90
17284;DHT22;8760;52.248;20.952;2022-10-31T08:30:30;18.30;99.90
17284;DHT22;8760;52.248;20.952;2022-10-31T08:33:02;18.40;99.90
17284;DHT22;8760;52.248;20.952;2022-10-31T08:35:30;18.70;99.90
17284;DHT22;8760;52.248;20.952;2022-10-31T08:37:57;18.90;88.70
17284;DHT22;8760;52.248;20.952;2022-10-31T08:40:26;19.30;1.00
17284;DHT22;8760;52.248;20.952;2022-10-31T08:42:58;19.50;1.00
17284;DHT22;8760;52.248;20.952;2022-10-31T08:45:25;19.20;1.00
17284;DHT22;8760;52.248;20.952;2022-10-31T08:47:56;19.60;1.00
17284;DHT22;8760;52.248;20.952;2022-10-31T08:50:22;20.10;1.00
17284;DHT22;8760;52.248;20.952;2022-10-31T08:52:49;20.40;1.00
17284;DHT22;8760;52.248;20.952;2022-10-31T08:55:16;20.60;1.00
17284;DHT22;8760;52.248;20.952;2022-10-31T08:57:44;20.60;1.00
17284;DHT22;8760;52.248;20.952;2022-10-31T09:00:12;20.70;1.00
17284;DHT22;8760;52.248;20.952;2022-10-31T09:02:39;20.40;1.00
17284;DHT22;8760;52.248;20.952;2022-10-31T09:05:06;20.60;1.00
17284;DHT22;8760;52.248;20.952;2022-10-31T09:07:33;20.80;1.00
17284;DHT22;8760;52.248;20.952;2022-10-31T09:10:00;21.00;1.00
17284;DHT22;8760;52.248;20.952;2022-10-31T09:12:27;21.10;1.00
17284;DHT22;8760;52.248;20.952;2022-10-31T09:14:55;21.10;1.00
17284;DHT22;8760;52.248;20.952;2022-10-31T09:17:22;21.40;1.00
17284;DHT22;8760;52.248;20.952;2022-10-31T09:19:49;21.40;1.00
17284;DHT22;8760;52.248;20.952;2022-10-31T09:22:16;21.50;1.00
17284;DHT22;8760;52.248;20.952;2022-10-31T09:24:43;21.50;1.00
17284;DHT22;8760;52.248;20.952;2022-10-31T09:27:10;21.60;1.00
17284;DHT22;8760;52.248;20.952;2022-10-31T09:29:37;21.50;1.00
17284;DHT22;8760;52.248;20.952;2022-10-31T09:32:05;21.00;1.00
17284;DHT22;8760;52.248;20.952;2022-10-31T09:34:32;21.90;1.00
17284;DHT22;8760;52.248;20.952;2022-10-31T09:36:59;22.20;1.00
17284;DHT22;8760;52.248;20.952;2022-10-31T09:39:26;22.20;1.00
17284;DHT22;8760;52.248;20.952;2022-10-31T09:42:04;22.20;1.00
17284;DHT22;8760;52.248;20.952;2022-10-31T09:44:45;22.40;1.00
17284;DHT22;8760;52.248;20.952;2022-10-31T09:47:20;22.40;1.00
17284;DHT22;8760;52.248;20.952;2022-10-31T09:50:03;22.80;1.00
17284;DHT22;8760;52.248;20.952;2022-10-31T09:52:35;22.90;99.90
17284;DHT22;8760;52.248;20.952;2022-10-31T09:55:08;23.30;99.90
17284;DHT22;8760;52.248;20.952;2022-10-31T09:57:37;23.60;99.90
17284;DHT22;8760;52.248;20.952;2022-10-31T10:00:09;23.30;99.90
17284;DHT22;8760;52.248;20.952;2022-10-31T10:02:43;23.40;99.90
17284;DHT22;8760;52.248;20.952;2022-10-31T10:05:13;23.30;99.90
17284;DHT22;8760;52.248;20.952;2022-10-31T10:07:46;23.40;99.90
17284;DHT22;8760;52.248;20.952;2022-10-31T10:10:18;23.10;99.90
17284;DHT22;8760;52.248;20.952;2022-10-31T10:13:08;23.20;99.90
17284;DHT22;8760;52.248;20.952;2022-10-31T10:15:52;23.30;99.90
17284;DHT22;8760;52.248;20.952;2022-10-31T10:18:32;23.50;99.90
17284;DHT22;8760;52.248;20.952;2022-10-31T10:21:09;23.60;99.90
17284;DHT22;8760;52.248;20.952;2022-10-31T10:23:50;23.80;99.90
17284;DHT22;8760;52.248;20.952;2022-10-31T10:26:20;23.40;99.90
17284;DHT22;8760;52.248;20.952;2022-10-31T10:28:49;23.50;99.90
17284;DHT22;8760;52.248;20.952;2022-10-31T10:31:18;23.50;99.90
17284;DHT22;8760;52.248;20.952;2022-10-31T10:33:58;23.70;99.90
17284;DHT22;8760;52.248;20.952;2022-10-31T10:36:32;23.60;99.90
17284;DHT22;8760;52.248;20.952;2022-10-31T10:39:04;23.80;99.90
17284;DHT22;8760;52.248;20.952;2022-10-31T10:41:34;23.70;99.90
17284;DHT22;8760;52.248;20.952;2022-10-31T10:44:01;23.60;99.90
17284;DHT22;8760;52.248;20.952;2022-10-31T10:46:36;23.60;99.90
17284;DHT22;8760;52.248;20.952;2022-10-31T10:49:30;23.30;99.90
17284;DHT22;8760;52.248;20.952;2022-10-31T10:52:02;23.90;99.90
17284;DHT22;8760;52.248;20.952;2022-10-31T10:54:46;24.20;99.90
17284;DHT22;8760;52.248;20.952;2022-10-31T10:57:44;24.30;99.90
17284;DHT22;8760;52.248;20.952;2022-10-31T11:00:21;24.50;99.90
17284;DHT22;8760;52.248;20.952;2022-10-31T11:02:48;23.90;99.90
17284;DHT22;8760;52.248;20.952;2022-10-31T11:05:23;23.40;99.90
17284;DHT22;8760;52.248;20.952;2022-10-31T11:07:50;23.00;99.90
17284;DHT22;8760;52.248;20.952;2022-10-31T11:10:17;22.60;99.90
17284;DHT22;8760;52.248;20.952;2022-10-31T11:12:46;22.60;99.90
17284;DHT22;8760;52.248;20.952;2022-10-31T11:15:24;22.80;99.90
17284;DHT22;8760;52.248;20.952;2022-10-31T11:17:55;22.90;99.90
17284;DHT22;8760;52.248;20.952;2022-10-31T11:20:29;23.30;99.90
17284;DHT22;8760;52.248;20.952;2022-10-31T11:23:10;23.50;99.90
17284;DHT22;8760;52.248;20.952;2022-10-31T11:25:48;23.50;99.90
17284;DHT22;8760;52.248;20.952;2022-10-31T11:28:16;23.10;99.90
17284;DHT22;8760;52.248;20.952;2022-10-31T11:30:45;22.90;99.90
17284;DHT22;8760;52.248;20.952;2022-10-31T11:33:18;23.00;99.90
17284;DHT22;8760;52.248;20.952;2022-10-31T11:35:47;23.10;99.90
17284;DHT22;8760;52.248;20.952;2022-10-31T11:38:18;23.30;99.90
17284;DHT22;8760;52.248;20.952;2022-10-31T11:40:54;23.30;99.90
17284;DHT22;8760;52.248;20.952;2022-10-31T11:43:22;23.40;99.90
17284;DHT22;8760;52.248;20.952;2022-10-31T11:45:50;23.70;99.90
17284;DHT22;8760;52.248;20.952;2022-10-31T11:48:19;23.80;99.90
17284;DHT22;8760;52.248;20.952;2022-10-31T11:50:52;23.80;99.90
17284;DHT22;8760;52.248;20.952;2022-10-31T11:53:24;23.80;99.90
17284;DHT22;8760;52.248;20.952;2022-10-31T11:56:02;23.30;99.90
17284;DHT22;8760;52.248;20.952;2022-10-31T11:58:30;23.40;99.90
17284;DHT22;8760;52.248;20.952;2022-10-31T12:00:57;23.90;99.90
17284;DHT22;8760;52.248;20.952;2022-10-31T12:03:33;24.30;99.90
17284;DHT22;8760;52.248;20.952;2022-10-31T12:06:09;24.60;99.90
17284;DHT22;8760;52.248;20.952;2022-10-31T12:08:38;23.90;99.90
17284;DHT22;8760;52.248;20.952;2022-10-31T12:11:15;23.80;99.90
17284;DHT22;8760;52.248;20.952;2022-10-31T12:13:53;23.60;99.90
17284;DHT22;8760;52.248;20.952;2022-10-31T12:16:28;23.50;99.90
17284;DHT22;8760;52.248;20.952;2022-10-31T12:18:59;23.60;99.90
17284;DHT22;8760;52.248;20.952;2022-10-31T12:21:52;23.30;99.90
17284;DHT22;8760;52.248;20.952;2022-10-31T12:24:31;22.90;99.90
17284;DHT22;8760;52.248;20.952;2022-10-31T12:27:16;22.10;99.90
17284;DHT22;8760;52.248;20.952;2022-10-31T12:30:17;21.40;99.90
17284;DHT22;8760;52.248;20.952;2022-10-31T12:33:10;20.80;1.00
17284;DHT22;8760;52.248;20.952;2022-10-31T12:35:47;20.40;1.00
17284;DHT22;8760;52.248;20.952;2022-10-31T12:41:42;20.30;1.00
17284;DHT22;8760;52.248;20.952;2022-10-31T12:44:22;20.60;1.00
17284;DHT22;8760;52.248;20.952;2022-10-31T12:47:04;20.80;1.00
17284;DHT22;8760;52.248;20.952;2022-10-31T12:49:42;20.70;1.00
17284;DHT22;8760;52.248;20.952;2022-10-31T12:52:21;20.50;1.00
17284;DHT22;8760;52.248;20.952;2022-10-31T12:55:08;20.30;1.00
17284;DHT22;8760;52.248;20.952;2022-10-31T12:57:41;20.30;51.90
17284;DHT22;8760;52.248;20.952;2022-10-31T13:00:12;20.50;20.40
17284;DHT22;8760;52.248;20.952;2022-10-31T13:02:46;20.40;13.20
17284;DHT22;8760;52.248;20.952;2022-10-31T13:05:20;20.30;43.20
17284;DHT22;8760;52.248;20.952;2022-10-31T13:07:52;19.90;99.90
17284;DHT22;8760;52.248;20.952;2022-10-31T13:10:22;19.80;99.90
17284;DHT22;8760;52.248;20.952;2022-10-31T13:12:54;19.60;99.90
17284;DHT22;8760;52.248;20.952;2022-10-31T13:15:25;19.40;1.00
17284;DHT22;8760;52.248;20.952;2022-10-31T13:17:55;19.30;1.00
17284;DHT22;8760;52.248;20.952;2022-10-31T13:20:27;18.90;99.90
17284;DHT22;8760;52.248;20.952;2022-10-31T13:23:11;18.70;99.90
17284;DHT22;8760;52.248;20.952;2022-10-31T13:25:46;18.50;1.00
17284;DHT22;8760;52.248;20.952;2022-10-31T13:28:24;18.30;99.90
17284;DHT22;8760;52.248;20.952;2022-10-31T13:30:55;18.00;1.00
17284;DHT22;8760;52.248;20.952;2022-10-31T13:33:25;17.80;99.90
17284;DHT22;8760;52.248;20.952;2022-10-31T13:35:57;17.80;99.90
17284;DHT22;8760;52.248;20.952;2022-10-31T13:38:32;17.80;99.90
17284;DHT22;8760;52.248;20.952;2022-10-31T13:41:04;17.80;99.90
17284;DHT22;8760;52.248;20.952;2022-10-31T13:43:44;17.90;99.90
17284;DHT22;8760;52.248;20.952;2022-10-31T13:46:23;18.00;20.30
17284;DHT22;8760;52.248;20.952;2022-10-31T13:48:50;17.90;1.00
17284;DHT22;8760;52.248;20.952;2022-10-31T13:51:25;17.80;99.90
17284;DHT22;8760;52.248;20.952;2022-10-31T13:53:58;17.80;99.90
17284;DHT22;8760;52.248;20.952;2022-10-31T13:56:27;17.80;1.00
17284;DHT22;8760;52.248;20.952;2022-10-31T14:01:51;17.30;1.00
17284;DHT22;8760;52.248;20.952;2022-10-31T14:04:20;17.10;1.00
17284;DHT22;8760;52.248;20.952;2022-10-31T14:06:54;17.00;99.90
17284;DHT22;8760;52.248;20.952;2022-10-31T14:09:26;17.00;1.00
17284;DHT22;8760;52.248;20.952;2022-10-31T14:11:54;17.00;99.90
17284;DHT22;8760;52.248;20.952;2022-10-31T14:14:29;17.00;99.90
17284;DHT22;8760;52.248;20.952;2022-10-31T14:16:57;16.70;99.90
17284;DHT22;8760;52.248;20.952;2022-10-31T14:19:26;16.40;1.00
17284;DHT22;8760;52.248;20.952;2022-10-31T14:21:53;16.10;26.00
17284;DHT22;8760;52.248;20.952;2022-10-31T14:24:44;15.90;1.00
17284;DHT22;8760;52.248;20.952;2022-10-31T14:27:33;15.60;1.00
17284;DHT22;8760;52.248;20.952;2022-10-31T14:30:14;15.40;1.00
17284;DHT22;8760;52.248;20.952;2022-10-31T14:32:42;15.10;1.00
17284;DHT22;8760;52.248;20.952;2022-10-31T14:35:15;15.00;1.00
17284;DHT22;8760;52.248;20.952;2022-10-31T14:38:03;14.80;1.00
17284;DHT22;8760;52.248;20.952;2022-10-31T14:40:39;14.70;11.80
17284;DHT22;8760;52.248;20.952;2022-10-31T14:43:43;14.50;44.10
17284;DHT22;8760;52.248;20.952;2022-10-31T14:46:18;14.30;86.10
17284;DHT22;8760;52.248;20.952;2022-10-31T14:49:04;14.10;99.90
17284;DHT22;8760;52.248;20.952;2022-10-31T14:51:37;14.00;99.90
17284;DHT22;8760;52.248;20.952;2022-10-31T14:54:07;13.90;99.90
17284;DHT22;8760;52.248;20.952;2022-10-31T14:56:43;13.80;99.90
17284;DHT22;8760;52.248;20.952;2022-10-31T14:59:15;13.80;99.90
17284;DHT22;8760;52.248;20.952;2022-10-31T15:01:54;13.70;99.90
17284;DHT22;8760;52.248;20.952;2022-10-31T15:04:24;13.60;99.90
17284;DHT22;8760;52.248;20.952;2022-10-31T15:06:57;13.50;99.90
17284;DHT22;8760;52.248;20.952;2022-10-31T15:09:27;13.50;99.90
17284;DHT22;8760;52.248;20.952;2022-10-31T15:11:55;13.30;99.90
17284;DHT22;8760;52.248;20.952;2022-10-31T15:14:26;13.30;99.90
17284;DHT22;8760;52.248;20.952;2022-10-31T15:16:56;13.20;99.90
17284;DHT22;8760;52.248;20.952;2022-10-31T15:19:26;13.10;99.90
17284;DHT22;8760;52.248;20.952;2022-10-31T15:21:56;13.00;99.90
17284;DHT22;8760;52.248;20.952;2022-10-31T15:24:24;13.10;99.90
17284;DHT22;8760;52.248;20.952;2022-10-31T15:26:55;13.00;99.90
17284;DHT22;8760;52.248;20.952;2022-10-31T15:29:24;13.00;99.90
17284;DHT22;8760;52.248;20.952;2022-10-31T15:31:52;13.00;99.90
17284;DHT22;8760;52.248;20.952;2022-10-31T15:34:24;13.00;99.90
17284;DHT22;8760;52.248;20.952;2022-10-31T15:36:52;12.90;99.90
17284;DHT22;8760;52.248;20.952;2022-10-31T15:39:19;12.90;99.90
17284;DHT22;8760;52.248;20.952;2022-10-31T15:41:49;12.90;99.90
17284;DHT22;8760;52.248;20.952;2022-10-31T15:44:21;12.90;99.90
17284;DHT22;8760;52.248;20.952;2022-10-31T15:46:56;12.90;99.90
17284;DHT22;8760;52.248;20.952;2022-10-31T15:49:34;12.80;99.90
17284;DHT22;8760;52.248;20.952;2022-10-31T15:52:12;12.80;99.90
17284;DHT22;8760;52.248;20.952;2022-10-31T15:54:46;12.80;99.90
17284;DHT22;8760;52.248;20.952;2022-10-31T15:57:14;12.80;99.90
17284;DHT22;8760;52.248;20.952;2022-10-31T15:59:42;12.90;99.90
17284;DHT22;8760;52.248;20.952;2022-10-31T16:02:13;12.80;99.90
17284;DHT22;8760;52.248;20.952;2022-10-31T16:04:51;12.80;99.90
17284;DHT22;8760;52.248;20.952;2022-10-31T16:07:19;12.80;99.90
17284;DHT22;8760;52.248;20.952;2022-10-31T16:09:55;12.70;99.90
17284;DHT22;8760;52.248;20.952;2022-10-31T16:12:23;12.70;99.90
17284;DHT22;8760;52.248;20.952;2022-10-31T16:14:52;12.60;99.90